createdAt,value
2022-12-15T00:02:35.896Z,97171.25
2022-12-15T00:05:50.009Z,97162.42
2022-12-15T00:09:03.737Z,97166.09
2022-12-15T00:12:16.703Z,97167.05
2022-12-15T00:15:29.729Z,97169.46
2022-12-15T00:18:42.729Z,97172.13
2022-12-15T00:21:49.716Z,97178.97
2022-12-15T00:24:43.282Z,97180.95
2022-12-15T00:27:49.928Z,97184.77
2022-12-15T00:30:50.301Z,97194.11
2022-12-15T00:33:56.691Z,97199.44
2022-12-15T00:36:55.722Z,97209.67
2022-12-15T00:39:50.727Z,97221.78
2022-12-15T00:42:38.869Z,97227.64
2022-12-15T00:45:13.872Z,97233.06
2022-12-15T00:48:01.726Z,97239.82
2022-12-15T00:51:01.699Z,97240.07
2022-12-15T00:54:18.048Z,97246.30
2022-12-15T00:57:23.698Z,97250.44
2022-12-15T01:00:24.710Z,97250.40
2022-12-15T01:03:30.413Z,97253.98
2022-12-15T01:06:42.654Z,97250.99
2022-12-15T01:09:35.493Z,97249.30
2022-12-15T01:12:41.655Z,97254.76
2022-12-15T01:15:34.483Z,97258.73
2022-12-15T01:18:40.692Z,97265.56
2022-12-15T01:21:28.734Z,97265.52
2022-12-15T01:24:16.651Z,97267.84
2022-12-15T01:26:57.726Z,97268.11
2022-12-15T01:29:52.702Z,97270.24
2022-12-15T01:32:47.709Z,97276.60
2022-12-15T01:35:36.701Z,97283.55
2022-12-15T01:38:18.684Z,97280.99
2022-12-15T01:41:18.706Z,97282.10
2022-12-15T01:44:33.688Z,97283.19
2022-12-15T01:47:28.701Z,97288.33
2022-12-15T01:50:27.693Z,97294.27
2022-12-15T01:53:23.708Z,97300.61
2022-12-15T01:56:19.691Z,97303.23
2022-12-15T01:59:16.698Z,97302.35
2022-12-15T02:02:11.842Z,97311.05
2022-12-15T02:05:10.669Z,97309.44
2022-12-15T02:08:05.695Z,97311.14
2022-12-15T02:11:23.672Z,97312.05
2022-12-15T02:14:25.687Z,97318.02
2022-12-15T02:17:28.681Z,97317.75
2022-12-15T02:20:57.688Z,97325.80
2022-12-15T02:24:10.773Z,97328.48
2022-12-15T02:27:32.801Z,97329.33
2022-12-15T02:30:29.850Z,97327.77
2022-12-15T02:33:36.731Z,97322.02
2022-12-15T02:36:43.715Z,97326.60
2022-12-15T02:39:18.851Z,97335.73
2022-12-15T02:42:07.682Z,97341.35
2022-12-15T02:44:53.694Z,97346.41
2022-12-15T02:48:11.677Z,97352.00
2022-12-15T02:51:06.688Z,97350.13
2022-12-15T02:54:02.811Z,97353.58
2022-12-15T02:56:55.668Z,97359.84
2022-12-15T02:59:44.843Z,97362.70
2022-12-15T03:02:35.733Z,97367.90
2022-12-15T03:05:11.813Z,97365.36
2022-12-15T03:08:00.678Z,97366.09
2022-12-15T03:10:35.844Z,97361.81
2022-12-15T03:13:23.666Z,97362.61
2022-12-15T03:15:58.923Z,97360.06
2022-12-15T03:18:46.677Z,97356.58
2022-12-15T03:21:21.826Z,97358.47
2022-12-15T03:24:16.676Z,97359.15
2022-12-15T03:27:11.697Z,97357.64
2022-12-15T03:30:06.693Z,97362.25
2022-12-15T03:32:54.835Z,97363.14
2022-12-15T03:35:42.670Z,97367.93
2022-12-15T03:38:24.768Z,97375.88
2022-12-15T03:41:19.655Z,97378.14
2022-12-15T03:44:07.668Z,97381.87
2022-12-15T03:46:42.844Z,97385.73
2022-12-15T03:49:30.780Z,97390.71
2022-12-15T03:52:25.679Z,97397.86
2022-12-15T03:55:14.652Z,97395.81
2022-12-15T03:57:49.886Z,97403.60
2022-12-15T04:00:37.712Z,97407.87
2022-12-15T04:03:19.711Z,97411.36
2022-12-15T04:06:14.661Z,97417.80
2022-12-15T04:09:09.663Z,97420.45
2022-12-15T04:11:57.804Z,97422.48
2022-12-15T04:14:49.650Z,97422.23
2022-12-15T04:17:44.673Z,97421.67
2022-12-15T04:20:32.654Z,97420.83
2022-12-15T04:23:10.971Z,97420.39
2022-12-15T04:26:16.643Z,97424.79
2022-12-15T04:29:09.281Z,97424.29
2022-12-15T04:32:23.666Z,97434.20
2022-12-15T04:35:36.685Z,97433.70
2022-12-15T04:38:50.889Z,97443.34
2022-12-15T04:42:04.656Z,97444.95
2022-12-15T04:45:20.886Z,97450.85
2022-12-15T04:48:34.673Z,97456.33
2022-12-15T04:51:47.674Z,97460.13
2022-12-15T04:55:01.723Z,97468.55
2022-12-15T04:58:15.670Z,97466.84
2022-12-15T05:01:30.857Z,97466.14
2022-12-15T05:04:43.684Z,97470.30
2022-12-15T05:07:50.661Z,97472.32
2022-12-15T05:11:03.671Z,97481.73
2022-12-15T05:14:17.724Z,97483.23
2022-12-15T05:17:23.684Z,97483.83
2022-12-15T05:20:17.541Z,97486.55
2022-12-15T05:23:24.907Z,97493.23
2022-12-15T05:26:24.625Z,97491.73
2022-12-15T05:29:37.682Z,97497.95
2022-12-15T05:32:32.686Z,97508.98
2022-12-15T05:35:27.644Z,97507.16
2022-12-15T05:38:22.636Z,97505.55
2022-12-15T05:41:10.647Z,97505.83
2022-12-15T05:43:52.726Z,97507.19
2022-12-15T05:46:47.810Z,97515.39
2022-12-15T05:49:42.730Z,97519.20
2022-12-15T05:52:37.629Z,97525.21
2022-12-15T05:55:32.642Z,97532.00
2022-12-15T05:58:27.738Z,97540.47
2022-12-15T06:01:27.688Z,97545.61
2022-12-15T06:04:24.697Z,97548.22
2022-12-15T06:07:19.705Z,97550.36
2022-12-15T06:10:14.640Z,97558.89
2022-12-15T06:13:09.708Z,97571.45
2022-12-15T06:16:14.721Z,97580.13
2022-12-15T06:19:12.718Z,97584.38
2022-12-15T06:22:07.724Z,97588.13
2022-12-15T06:25:02.629Z,97595.29
2022-12-15T06:28:01.730Z,97597.36
2022-12-15T06:30:49.769Z,97605.96
2022-12-15T06:33:37.694Z,97612.67
2022-12-15T06:36:21.629Z,97612.20
2022-12-15T06:39:17.629Z,97624.11
2022-12-15T06:42:05.634Z,97633.67
2022-12-15T06:44:47.700Z,97640.87
2022-12-15T06:47:44.621Z,97643.55
2022-12-15T06:50:39.649Z,97649.23
2022-12-15T06:53:36.698Z,97652.16
2022-12-15T06:56:43.682Z,97655.44
2022-12-15T06:59:25.063Z,97663.98
2022-12-15T07:02:12.878Z,97666.55
2022-12-15T07:05:00.737Z,97665.77
2022-12-15T07:07:42.731Z,97666.23
2022-12-15T07:10:37.604Z,97674.52
2022-12-15T07:13:33.196Z,97682.05
2022-12-15T07:16:22.823Z,97686.96
2022-12-15T07:19:04.626Z,97700.44
2022-12-15T07:21:59.718Z,97706.91
2022-12-15T07:24:47.655Z,97710.86
2022-12-15T07:27:22.796Z,97713.38
2022-12-15T07:30:10.624Z,97716.58
2022-12-15T07:32:52.622Z,97720.00
2022-12-15T07:35:40.613Z,97722.11
2022-12-15T07:38:22.617Z,97722.65
2022-12-15T07:41:19.731Z,97732.27
2022-12-15T07:44:14.710Z,97738.84
2022-12-15T07:47:09.611Z,97749.73
2022-12-15T07:50:04.586Z,97758.81
2022-12-15T07:52:59.598Z,97765.23
2022-12-15T07:56:06.268Z,97771.29
2022-12-15T07:58:42.242Z,97774.91
2022-12-15T08:01:37.721Z,97779.33
2022-12-15T08:04:32.596Z,97785.07
2022-12-15T08:07:27.602Z,97793.69
2022-12-15T08:10:22.599Z,97797.79
2022-12-15T08:13:31.631Z,97801.83
2022-12-15T08:16:33.660Z,97811.88
2022-12-15T08:19:29.595Z,97802.59
2022-12-15T08:22:24.579Z,97809.97
2022-12-15T08:25:19.610Z,97814.89
2022-12-15T08:28:07.580Z,97823.33
2022-12-15T08:30:42.746Z,97828.92
2022-12-15T08:33:30.934Z,97836.09
2022-12-15T08:36:07.800Z,97838.95
2022-12-15T08:38:56.592Z,97844.02
2022-12-15T08:41:51.644Z,97844.59
2022-12-15T08:44:39.682Z,97853.30
2022-12-15T08:47:14.818Z,97859.09
2022-12-15T08:50:02.652Z,97867.95
2022-12-15T08:53:28.794Z,97875.63
2022-12-15T08:56:17.611Z,97878.69
2022-12-15T08:59:16.593Z,97881.50
2022-12-15T09:02:12.734Z,97887.16
2022-12-15T09:05:07.673Z,97882.10
2022-12-15T09:08:06.594Z,97890.23
2022-12-15T09:11:01.587Z,97884.43
2022-12-15T09:13:50.571Z,97886.78
2022-12-15T09:16:25.842Z,97889.65
2022-12-15T09:19:15.747Z,97897.40
2022-12-15T09:21:51.010Z,97895.56
2022-12-15T09:24:41.612Z,97888.84
2022-12-15T09:27:16.787Z,97883.63
2022-12-15T09:30:04.594Z,97883.11
2022-12-15T09:32:39.999Z,97892.86
2022-12-15T09:35:27.730Z,97899.02
2022-12-15T09:38:03.715Z,97899.80
2022-12-15T09:40:51.570Z,97903.23
2022-12-15T09:43:47.641Z,97908.82
2022-12-15T09:47:23.563Z,97910.77
2022-12-15T09:50:16.584Z,97910.11
2022-12-15T09:53:00.725Z,97907.39
2022-12-15T09:55:57.587Z,97906.02
2022-12-15T09:58:51.615Z,97904.90
2022-12-15T10:01:35.780Z,97906.64
2022-12-15T10:04:33.608Z,97910.77
2022-12-15T10:07:31.582Z,97913.84
2022-12-15T10:10:06.722Z,97915.67
2022-12-15T10:13:02.030Z,97916.66
2022-12-15T10:16:28.820Z,97916.12
2022-12-15T10:19:24.570Z,97919.95
2022-12-15T10:21:59.752Z,97925.63
2022-12-15T10:28:16.568Z,97925.81
2022-12-15T10:31:35.571Z,97925.13
2022-12-15T10:34:46.755Z,97917.02
2022-12-15T10:37:43.583Z,97910.89
2022-12-15T10:41:00.584Z,97921.10
2022-12-15T10:43:57.671Z,97932.48
2022-12-15T10:46:52.723Z,97934.10
2022-12-15T10:49:34.009Z,97933.27
2022-12-15T10:52:45.645Z,97934.06
2022-12-15T10:55:50.005Z,97939.17
2022-12-15T10:58:45.584Z,97944.66
2022-12-15T11:01:47.642Z,97933.73
2022-12-15T11:04:45.554Z,97924.69
2022-12-15T11:07:54.653Z,97917.60
2022-12-15T11:11:08.600Z,97918.71
2022-12-15T11:14:24.595Z,97918.88
2022-12-15T11:17:13.657Z,97926.49
2022-12-15T11:20:17.574Z,97935.09
2022-12-15T11:23:17.143Z,97957.92
2022-12-15T11:26:12.590Z,97972.67
2022-12-15T11:28:57.863Z,97974.40
2022-12-15T11:31:48.846Z,97975.75
2022-12-15T11:34:26.757Z,97976.33
2022-12-15T11:37:36.851Z,97974.77
2022-12-15T11:40:56.613Z,97972.96
2022-12-15T11:44:17.550Z,97972.06
2022-12-15T11:47:37.610Z,97976.91
2022-12-15T11:50:46.560Z,97983.65
2022-12-15T11:54:11.648Z,97988.34
2022-12-15T11:57:18.544Z,97982.25
2022-12-15T12:00:26.556Z,97982.11
2022-12-15T12:03:33.584Z,97979.40
2022-12-15T12:06:25.550Z,97982.23
2022-12-15T12:09:13.552Z,97984.59
2022-12-15T12:12:05.560Z,97977.73
2022-12-15T12:15:09.671Z,97978.84
2022-12-15T12:18:11.599Z,97989.81
2022-12-15T12:21:14.585Z,97987.42
2022-12-15T12:24:23.551Z,97985.84
2022-12-15T12:27:31.627Z,97983.80
2022-12-15T12:30:20.560Z,97982.04
2022-12-15T12:33:37.545Z,97982.45
2022-12-15T12:36:27.552Z,97987.66
2022-12-15T12:39:33.657Z,97992.52
2022-12-15T12:42:56.609Z,97999.58
2022-12-15T12:46:05.561Z,98008.79
2022-12-15T12:49:26.452Z,98017.92
2022-12-15T12:52:32.539Z,98020.91
2022-12-15T12:55:20.564Z,98022.67
2022-12-15T12:57:56.303Z,98023.11
2022-12-15T13:00:44.611Z,98020.68
2022-12-15T13:03:40.568Z,98011.96
2022-12-15T13:06:55.640Z,97998.05
2022-12-15T13:09:57.610Z,98002.59
2022-12-15T13:13:05.585Z,98012.45
2022-12-15T13:15:54.568Z,98020.11
2022-12-15T13:18:38.596Z,98029.25
2022-12-15T13:21:56.987Z,98032.16
2022-12-15T13:25:02.743Z,98033.55
2022-12-15T13:27:57.536Z,98042.48
2022-12-15T13:31:23.773Z,98044.02
2022-12-15T13:34:05.587Z,98046.19
2022-12-15T13:37:03.792Z,98040.86
2022-12-15T13:40:08.732Z,98034.58
2022-12-15T13:43:23.552Z,98031.20
2022-12-15T13:46:23.724Z,98034.02
2022-12-15T13:49:29.624Z,98037.19
2022-12-15T13:52:20.632Z,98037.23
2022-12-15T13:55:04.677Z,98040.68
2022-12-15T13:58:01.529Z,98045.55
2022-12-15T14:00:36.789Z,98035.71
2022-12-15T14:03:32.039Z,98037.52
2022-12-15T14:06:28.603Z,98037.56
2022-12-15T14:09:27.673Z,98036.97
2022-12-15T14:12:26.515Z,98045.18
2022-12-15T14:15:24.555Z,98053.19
2022-12-15T14:18:01.867Z,98058.38
2022-12-15T14:20:49.530Z,98076.00
2022-12-15T14:24:19.613Z,98084.23
2022-12-15T14:26:59.507Z,98091.10
2022-12-15T14:29:34.713Z,98082.11
2022-12-15T14:32:22.509Z,98087.73
2022-12-15T14:35:04.537Z,98096.54
2022-12-15T14:37:59.533Z,98106.18
2022-12-15T14:40:49.284Z,98116.13
2022-12-15T14:43:34.138Z,98119.83
2022-12-15T14:46:24.600Z,98123.71
2022-12-15T14:49:16.527Z,98131.45
2022-12-15T14:52:14.605Z,98133.78
2022-12-15T14:55:05.653Z,98133.52
2022-12-15T14:57:55.514Z,98135.66
2022-12-15T15:00:37.708Z,98127.59
2022-12-15T15:03:33.520Z,98127.73
2022-12-15T15:06:11.658Z,98131.55
2022-12-15T15:09:04.758Z,98135.04
2022-12-15T15:12:01.801Z,98139.73
2022-12-15T15:14:56.589Z,98146.87
2022-12-15T15:17:44.525Z,98150.52
2022-12-15T15:20:31.951Z,98152.26
2022-12-15T15:23:22.621Z,98148.73
2022-12-15T15:26:16.548Z,98150.17
2022-12-15T15:29:11.522Z,98152.23
2022-12-15T15:32:00.717Z,98150.36
2022-12-15T15:34:43.519Z,98145.08
2022-12-15T15:37:40.871Z,98150.02
2022-12-15T15:40:28.557Z,98147.33
2022-12-15T15:43:03.736Z,98147.61
2022-12-15T15:45:52.618Z,98153.91
2022-12-15T15:48:49.543Z,98157.38
2022-12-15T15:51:45.521Z,98162.67
2022-12-15T15:54:44.508Z,98162.81
2022-12-15T15:57:33.526Z,98158.63
2022-12-15T16:00:09.783Z,98171.20
2022-12-15T16:02:57.824Z,98174.44
2022-12-15T16:05:34.320Z,98174.55
2022-12-15T16:08:38.876Z,98181.98
2022-12-15T16:11:30.953Z,98172.63
2022-12-15T16:14:24.666Z,98167.73
2022-12-15T16:17:24.796Z,98170.98
2022-12-15T16:20:24.532Z,98170.92
2022-12-15T16:23:36.504Z,98178.45
2022-12-15T16:26:32.721Z,98175.98
2022-12-15T16:29:14.501Z,98172.77
2022-12-15T16:32:09.544Z,98175.17
2022-12-15T16:34:58.008Z,98165.61
2022-12-15T16:37:39.585Z,98150.86
2022-12-15T16:40:29.535Z,98145.70
2022-12-15T16:43:06.661Z,98142.67
2022-12-15T16:45:58.536Z,98143.21
2022-12-15T16:48:35.195Z,98130.27
2022-12-15T16:51:54.163Z,98121.11
2022-12-15T16:54:36.760Z,98124.89
2022-12-15T16:57:26.993Z,98127.61
2022-12-15T17:00:02.123Z,98135.02
2022-12-15T17:02:52.205Z,98142.64
2022-12-15T17:05:28.635Z,98148.08
2022-12-15T17:08:34.831Z,98147.09
2022-12-15T17:11:39.933Z,98151.02
2022-12-15T17:14:39.645Z,98153.83
2022-12-15T17:17:28.506Z,98158.05
2022-12-15T17:20:29.203Z,98166.90
2022-12-15T17:23:15.517Z,98175.64
2022-12-15T17:26:22.527Z,98180.95
2022-12-15T17:29:20.476Z,98177.70
2022-12-15T17:32:11.578Z,98178.06
2022-12-15T17:34:47.539Z,98181.31
2022-12-15T17:37:36.688Z,98179.00
2022-12-15T17:40:26.779Z,98179.39
2022-12-15T17:43:23.598Z,98184.39
2022-12-15T17:46:05.714Z,98186.85
2022-12-15T17:49:00.493Z,98177.45
2022-12-15T17:51:58.499Z,98173.67
2022-12-15T17:54:53.492Z,98171.54
2022-12-15T17:57:41.614Z,98166.55
2022-12-15T18:00:49.037Z,98165.23
2022-12-15T18:03:46.775Z,98163.55
2022-12-15T18:06:42.817Z,98152.50
2022-12-15T18:09:37.479Z,98148.96
2022-12-15T18:12:31.820Z,98148.11
2022-12-15T18:15:14.789Z,98143.51
2022-12-15T18:18:08.064Z,98148.72
2022-12-15T18:20:50.504Z,98152.06
2022-12-15T18:23:42.889Z,98147.58
2022-12-15T18:26:39.664Z,98141.04
2022-12-15T18:29:42.704Z,98136.09
2022-12-15T18:32:33.520Z,98138.30
2022-12-15T18:35:49.536Z,98143.34
2022-12-15T18:38:45.467Z,98150.66
2022-12-15T18:41:43.329Z,98154.65
2022-12-15T18:44:42.824Z,98153.98
2022-12-15T18:47:42.570Z,98155.44
2022-12-15T18:50:38.492Z,98163.56
2022-12-15T18:53:49.455Z,98165.77
2022-12-15T18:56:44.497Z,98168.80
2022-12-15T18:59:39.467Z,98172.82
2022-12-15T19:02:34.671Z,98174.27
2022-12-15T19:05:35.559Z,98181.50
2022-12-15T19:08:38.549Z,98183.55
2022-12-15T19:11:39.482Z,98184.98
2022-12-15T19:14:45.464Z,98186.34
2022-12-15T19:17:53.477Z,98185.83
2022-12-15T19:21:07.798Z,98186.04
2022-12-15T19:23:57.485Z,98187.10
2022-12-15T19:26:32.646Z,98188.04
2022-12-15T19:29:28.484Z,98192.52
2022-12-15T19:32:23.989Z,98186.97
2022-12-15T19:35:11.477Z,98179.45
2022-12-15T19:37:49.949Z,98170.70
2022-12-15T19:40:40.477Z,98168.69
2022-12-15T19:43:18.085Z,98172.38
2022-12-15T19:46:06.551Z,98165.73
2022-12-15T19:48:43.667Z,98162.58
2022-12-15T19:51:35.538Z,98152.39
2022-12-15T19:54:19.604Z,98150.48
2022-12-15T19:57:14.584Z,98150.76
2022-12-15T20:00:02.681Z,98149.17
2022-12-15T20:02:38.761Z,98149.20
2022-12-15T20:05:27.730Z,98154.23
2022-12-15T20:08:32.822Z,98158.80
2022-12-15T20:11:27.491Z,98157.59
2022-12-15T20:14:10.087Z,98154.38
2022-12-15T20:16:59.715Z,98146.83
2022-12-15T20:19:42.539Z,98142.23
2022-12-15T20:22:38.186Z,98152.04
2022-12-15T20:25:39.035Z,98148.77
2022-12-15T20:28:37.452Z,98146.45
2022-12-15T20:31:35.461Z,98146.90
2022-12-15T20:34:24.446Z,98141.69
2022-12-15T20:37:00.089Z,98135.04
2022-12-15T20:39:52.559Z,98134.45
2022-12-15T20:42:37.649Z,98131.27
2022-12-15T20:45:34.569Z,98132.48
2022-12-15T20:48:31.617Z,98132.02
2022-12-15T20:51:27.786Z,98124.58
2022-12-15T20:54:16.481Z,98123.16
2022-12-15T20:57:11.429Z,98119.88
2022-12-15T21:00:08.457Z,98119.98
2022-12-15T21:03:04.584Z,98116.39
2022-12-15T21:05:53.701Z,98116.77
2022-12-15T21:08:45.112Z,98122.73
2022-12-15T21:11:45.465Z,98123.09
2022-12-15T21:14:37.575Z,98118.80
2022-12-15T21:17:19.434Z,98121.88
2022-12-15T21:20:14.477Z,98115.15
2022-12-15T21:23:09.484Z,98118.09
2022-12-15T21:26:05.440Z,98117.87
2022-12-15T21:29:04.435Z,98112.32
2022-12-15T21:31:52.455Z,98113.35
2022-12-15T21:34:27.703Z,98118.08
2022-12-15T21:37:29.448Z,98112.94
2022-12-15T21:40:30.435Z,98112.41
2022-12-15T21:43:25.464Z,98106.24
2022-12-15T21:46:55.480Z,98098.27
2022-12-15T21:49:37.619Z,98095.71
2022-12-15T21:52:33.547Z,98088.85
2022-12-15T21:55:38.013Z,98086.95
2022-12-15T21:58:34.825Z,98078.64
2022-12-15T22:01:30.435Z,98075.95
2022-12-15T22:04:08.571Z,98073.84
2022-12-15T22:06:56.463Z,98073.67
2022-12-15T22:09:31.550Z,98069.47
2022-12-15T22:12:28.532Z,98068.46
2022-12-15T22:15:31.431Z,98064.55
2022-12-15T22:18:29.796Z,98053.65
2022-12-15T22:21:24.458Z,98049.41
2022-12-15T22:24:12.428Z,98046.20
2022-12-15T22:26:47.770Z,98041.77
2022-12-15T22:29:46.429Z,98040.48
2022-12-15T22:32:28.025Z,98045.60
2022-12-15T22:35:18.055Z,98055.33
2022-12-15T22:38:06.440Z,98054.71
2022-12-15T22:41:03.420Z,98050.70
2022-12-15T22:43:58.419Z,98043.66
2022-12-15T22:46:54.625Z,98040.48
2022-12-15T22:49:53.256Z,98036.48
2022-12-15T22:52:52.565Z,98030.31
2022-12-15T22:55:55.334Z,98025.21
2022-12-15T22:58:50.387Z,98016.48
2022-12-15T23:01:27.628Z,98013.98
2022-12-15T23:04:15.421Z,98016.46
2022-12-15T23:06:50.627Z,98013.60
2022-12-15T23:09:39.417Z,98007.60
2022-12-15T23:12:34.430Z,98007.84
2022-12-15T23:15:47.490Z,98012.17
2022-12-15T23:18:42.412Z,98007.16
2022-12-15T23:21:37.406Z,97999.16
2022-12-15T23:24:32.399Z,97995.44
2022-12-15T23:27:20.400Z,97989.45
2022-12-15T23:30:15.612Z,97983.77
2022-12-15T23:33:10.395Z,97972.41
2022-12-15T23:36:02.482Z,97966.52
2022-12-15T23:38:44.397Z,97958.09
2022-12-15T23:41:40.424Z,97949.76
2022-12-15T23:44:30.820Z,97953.34
2022-12-15T23:47:05.613Z,97960.86
2022-12-15T23:49:53.408Z,97956.36
2022-12-15T23:52:51.748Z,97959.31
2022-12-15T23:55:49.399Z,97958.27
2022-12-15T23:58:46.391Z,97953.40
